Time;durP1;ratioP1;P1;durP2;ratioP2;P2;SDS_P1;SDS_P2;PMS_P1;PMS_P2;Temp;Humidity;BMP_temperature;BMP_pressure;BME280_temperature;BME280_humidity;BME280_pressure;Samples;Min_cycle;Max_cycle;Signal;HPM_P1;HPM_P2
2023/03/12 00:00:26;;;;;;;4.32;3.28;;;;;;;;;;1036533;28;20453;-57
2023/03/12 00:00:57;;;;;;;3.78;2.83;;;;;;;;;;1034776;28;20026;-58
2023/03/12 00:01:29;;;;;;;5.63;3.65;;;;;;;;;;1035183;28;20243;-58
2023/03/12 00:02:00;;;;;;;3.88;2.80;;;;;;;;;;1036166;28;20022;-57
2023/03/12 00:02:31;;;;;;;5.43;2.85;;;;;;;;;;1039143;28;20079;-57
2023/03/12 00:03:02;;;;;;;4.80;3.23;;;;;;;;;;1039221;28;20033;-57
2023/03/12 00:03:33;;;;;;;4.22;2.88;;;;;;;;;;1041296;28;20782;-58
2023/03/12 00:04:04;;;;;;;3.75;2.83;;;;;;;;;;1038894;28;20078;-57
2023/03/12 00:04:35;;;;;;;4.15;3.28;;;;;;;;;;1039146;28;20074;-57
2023/03/12 00:05:06;;;;;;;5.75;3.25;;;;;;;;;;1038235;28;20091;-57
2023/03/12 00:05:38;;;;;;;4.00;2.75;;;;;;;;;;1038520;28;20022;-57
2023/03/12 00:06:09;;;;;;;4.00;3.00;;;;;;;;;;1039084;28;20022;-57
2023/03/12 00:06:40;;;;;;;3.85;3.17;;;;;;;;;;1039444;28;20021;-57
2023/03/12 00:07:11;;;;;;;4.45;3.25;;;;;;;;;;1038884;28;20022;-56
2023/03/12 00:07:42;;;;;;;3.63;2.92;;;;;;;;;;1039282;28;20488;-58
2023/03/12 00:08:13;;;;;;;3.53;2.75;;;;;;;;;;1039188;28;20044;-57
2023/03/12 00:08:44;;;;;;;4.38;3.10;;;;;;;;;;1039117;28;20021;-57
2023/03/12 00:09:15;;;;;;;4.22;3.13;;;;;;;;;;1039261;28;20045;-57
2023/03/12 00:09:46;;;;;;;4.55;3.30;;;;;;;;;;1039063;28;20045;-57
2023/03/12 00:10:17;;;;;;;5.13;3.00;;;;;;;;;;1039262;28;20028;-57
2023/03/12 00:10:48;;;;;;;3.53;2.97;;;;;;;;;;1038915;28;20115;-57
2023/03/12 00:11:20;;;;;;;3.80;2.70;;;;;;;;;;1039414;28;20095;-57
2023/03/12 00:11:51;;;;;;;3.92;3.35;;;;;;;;;;1038934;28;20842;-57
2023/03/12 00:12:22;;;;;;;4.78;3.25;;;;;;;;;;1039192;28;20614;-57
2023/03/12 00:12:53;;;;;;;3.67;3.00;;;;;;;;;;1038888;28;20381;-58
2023/03/12 00:13:24;;;;;;;4.22;3.13;;;;;;;;;;1039365;28;20107;-58
2023/03/12 00:13:56;;;;;;;4.43;2.78;;;;;;;;;;1038974;28;20029;-57
2023/03/12 00:14:27;;;;;;;4.25;2.65;;;;;;;;;;1039186;28;20112;-57
2023/03/12 00:14:58;;;;;;;4.65;3.17;;;;;;;;;;1038964;28;20032;-58
2023/03/12 00:15:29;;;;;;;4.93;3.05;;;;;;;;;;1039314;28;20391;-57
2023/03/12 00:16:08;;;;;;;5.15;3.47;;;;;;;;;;1039074;28;20017;-57
2023/03/12 00:16:39;;;;;;;3.50;2.67;;;;;;;;;;1039222;28;20053;-57
2023/03/12 00:17:10;;;;;;;3.58;3.25;;;;;;;;;;1038953;28;20029;-57
2023/03/12 00:17:41;;;;;;;4.00;2.67;;;;;;;;;;1039210;28;20021;-57
2023/03/12 00:18:12;;;;;;;4.60;3.30;;;;;;;;;;1040427;28;20539;-57
2023/03/12 00:18:43;;;;;;;3.00;2.70;;;;;;;;;;1039458;28;20025;-57
2023/03/12 00:19:14;;;;;;;3.90;3.10;;;;;;;;;;1038925;28;20252;-57
2023/03/12 00:19:45;;;;;;;3.90;2.92;;;;;;;;;;1039467;28;20029;-57
2023/03/12 00:20:16;;;;;;;5.50;3.25;;;;;;;;;;1042773;28;20029;-57
2023/03/12 00:20:54;;;;;;;3.55;3.08;;;;;;;;;;1040708;28;20021;-57
2023/03/12 00:21:25;;;;;;;3.75;2.95;;;;;;;;;;1037856;28;20021;-57
2023/03/12 00:21:56;;;;;;;3.53;2.95;;;;;;;;;;1035060;28;20029;-57
2023/03/12 00:22:27;;;;;;;4.57;2.97;;;;;;;;;;1037035;28;20049;-57
2023/03/12 00:22:58;;;;;;;4.45;2.95;;;;;;;;;;1039043;28;20029;-58
2023/03/12 00:23:29;;;;;;;3.88;2.60;;;;;;;;;;1039309;28;20024;-57
2023/03/12 00:24:00;;;;;;;4.50;3.08;;;;;;;;;;1038907;28;20511;-57
2023/03/12 00:24:31;;;;;;;3.10;2.78;;;;;;;;;;1039198;28;20022;-57
2023/03/12 00:25:02;;;;;;;4.22;3.00;;;;;;;;;;1039068;28;20033;-57
2023/03/12 00:25:33;;;;;;;3.78;2.67;;;;;;;;;;1039154;28;20619;-57
2023/03/12 00:26:08;;;;;;;4.75;3.40;;;;;;;;;;1037427;28;20025;-57
2023/03/12 00:26:39;;;;;;;4.35;2.50;;;;;;;;;;1035279;28;20034;-57
2023/03/12 00:27:10;;;;;;;4.32;3.05;;;;;;;;;;1034764;28;20046;-57
2023/03/12 00:27:42;;;;;;;3.42;3.00;;;;;;;;;;1038030;28;20365;-57
2023/03/12 00:28:12;;;;;;;5.07;2.97;;;;;;;;;;1039060;28;20349;-57
2023/03/12 00:28:43;;;;;;;4.70;2.78;;;;;;;;;;1039302;28;20425;-57
2023/03/12 00:29:14;;;;;;;4.68;3.08;;;;;;;;;;1038899;28;20060;-57
2023/03/12 00:29:45;;;;;;;4.55;3.05;;;;;;;;;;1036915;28;20132;-57
2023/03/12 00:30:16;;;;;;;4.13;2.63;;;;;;;;;;1034985;28;20030;-57
2023/03/12 00:30:47;;;;;;;4.60;3.00;;;;;;;;;;1034931;28;20105;-57
2023/03/12 00:31:24;;;;;;;4.50;2.50;;;;;;;;;;1035757;28;20034;-57
2023/03/12 00:31:55;;;;;;;3.95;3.05;;;;;;;;;;1039210;28;20026;-57
2023/03/12 00:32:26;;;;;;;3.63;2.80;;;;;;;;;;1039115;28;20025;-59
2023/03/12 00:32:57;;;;;;;4.18;3.13;;;;;;;;;;1038911;28;20260;-57
2023/03/12 00:33:28;;;;;;;4.82;3.30;;;;;;;;;;1039170;28;20026;-58
2023/03/12 00:34:00;;;;;;;4.13;2.88;;;;;;;;;;1039240;28;20338;-57
2023/03/12 00:34:31;;;;;;;3.67;2.60;;;;;;;;;;1039344;28;20506;-57
2023/03/12 00:35:02;;;;;;;3.83;2.85;;;;;;;;;;1039655;28;20506;-57
2023/03/12 00:35:33;;;;;;;3.38;2.85;;;;;;;;;;1039078;28;20032;-57
2023/03/12 00:36:04;;;;;;;4.90;3.13;;;;;;;;;;1039269;28;20030;-57
2023/03/12 00:36:35;;;;;;;5.40;2.90;;;;;;;;;;1039076;28;20023;-57
2023/03/12 00:37:06;;;;;;;4.38;3.20;;;;;;;;;;1038934;28;20032;-57
2023/03/12 00:37:38;;;;;;;3.72;2.53;;;;;;;;;;1039236;28;20036;-58
2023/03/12 00:38:09;;;;;;;3.42;2.65;;;;;;;;;;1038775;28;20025;-57
2023/03/12 00:38:40;;;;;;;4.40;2.95;;;;;;;;;;1039303;28;20021;-57
2023/03/12 00:39:11;;;;;;;3.30;2.70;;;;;;;;;;1038980;28;20021;-57
2023/03/12 00:39:42;;;;;;;3.22;2.70;;;;;;;;;;1039341;28;20033;-58
2023/03/12 00:40:13;;;;;;;3.47;2.60;;;;;;;;;;1038840;28;20109;-58
2023/03/12 00:40:44;;;;;;;3.60;2.78;;;;;;;;;;1039303;28;20256;-57
2023/03/12 00:41:15;;;;;;;4.28;2.80;;;;;;;;;;1038842;28;20030;-58
2023/03/12 00:41:46;;;;;;;4.20;2.80;;;;;;;;;;1039103;28;20084;-57
2023/03/12 00:42:17;;;;;;;3.55;2.78;;;;;;;;;;1038951;28;20108;-58
2023/03/12 00:42:48;;;;;;;3.97;2.53;;;;;;;;;;1039126;28;20104;-57
2023/03/12 00:43:19;;;;;;;4.35;2.97;;;;;;;;;;1038858;28;20025;-57
2023/03/12 00:43:50;;;;;;;6.38;3.50;;;;;;;;;;1039104;28;20121;-58
2023/03/12 00:44:21;;;;;;;4.07;2.67;;;;;;;;;;1038982;28;20579;-58
2023/03/12 00:44:52;;;;;;;3.25;2.53;;;;;;;;;;1038347;28;20432;-58
2023/03/12 00:45:23;;;;;;;3.97;2.78;;;;;;;;;;1038939;28;20033;-57
2023/03/12 00:45:54;;;;;;;4.50;2.63;;;;;;;;;;1039147;28;20032;-57
2023/03/12 00:46:25;;;;;;;4.30;2.78;;;;;;;;;;1038855;28;20664;-57
2023/03/12 00:46:56;;;;;;;4.38;2.60;;;;;;;;;;1038996;28;20036;-58
2023/03/12 00:47:27;;;;;;;4.28;2.85;;;;;;;;;;1038893;28;20029;-58
2023/03/12 00:47:58;;;;;;;4.50;2.85;;;;;;;;;;1040988;28;20021;-57
2023/03/12 00:48:29;;;;;;;4.05;2.78;;;;;;;;;;1040704;28;20341;-57
2023/03/12 00:49:00;;;;;;;4.28;3.10;;;;;;;;;;1039077;28;20088;-57
2023/03/12 00:49:31;;;;;;;3.03;2.50;;;;;;;;;;1038910;28;20035;-58
2023/03/12 00:50:02;;;;;;;3.80;2.90;;;;;;;;;;1039041;28;20037;-58
2023/03/12 00:50:33;;;;;;;4.03;2.97;;;;;;;;;;1038877;28;20025;-58
2023/03/12 00:51:05;;;;;;;3.50;2.80;;;;;;;;;;1038957;28;20033;-57
2023/03/12 00:51:35;;;;;;;4.50;2.80;;;;;;;;;;1039012;28;20093;-58
2023/03/12 00:52:06;;;;;;;4.00;2.65;;;;;;;;;;1038430;28;20031;-57
2023/03/12 00:52:37;;;;;;;4.85;2.72;;;;;;;;;;1038492;28;20017;-58
2023/03/12 00:53:08;;;;;;;5.60;2.85;;;;;;;;;;1038795;28;20365;-57
2023/03/12 00:53:39;;;;;;;5.45;2.97;;;;;;;;;;1038250;28;20036;-58
2023/03/12 00:54:10;;;;;;;3.22;2.75;;;;;;;;;;1034971;28;20437;-57
2023/03/12 00:54:41;;;;;;;3.83;2.40;;;;;;;;;;1034901;28;20028;-57
2023/03/12 00:55:12;;;;;;;4.53;2.40;;;;;;;;;;1036157;28;20066;-58
2023/03/12 00:55:43;;;;;;;3.92;2.88;;;;;;;;;;1038911;28;20671;-57
2023/03/12 00:56:14;;;;;;;4.03;3.20;;;;;;;;;;1038572;28;20021;-57
2023/03/12 00:56:46;;;;;;;4.32;2.75;;;;;;;;;;1038389;28;20079;-57
2023/03/12 00:57:16;;;;;;;4.88;3.03;;;;;;;;;;1039150;28;20026;-57
2023/03/12 00:57:47;;;;;;;4.07;2.65;;;;;;;;;;1038804;28;20037;-57
2023/03/12 00:58:18;;;;;;;3.60;2.72;;;;;;;;;;1039115;28;20029;-57
2023/03/12 00:58:49;;;;;;;3.97;2.70;;;;;;;;;;1038699;28;20104;-57
2023/03/12 00:59:20;;;;;;;3.63;2.60;;;;;;;;;;1039164;28;20075;-57
2023/03/12 00:59:51;;;;;;;3.85;2.80;;;;;;;;;;1038304;28;20075;-57
2023/03/12 01:00:22;;;;;;;3.75;2.58;;;;;;;;;;1038629;28;20096;-57
2023/03/12 01:00:53;;;;;;;3.55;3.17;;;;;;;;;;1034162;28;20030;-57
2023/03/12 01:01:26;;;;;;;3.83;2.63;;;;;;;;;;1034687;28;20018;-57
2023/03/12 01:01:57;;;;;;;3.63;2.55;;;;;;;;;;1038416;28;20057;-57
2023/03/12 01:02:28;;;;;;;3.93;2.57;;;;;;;;;;1038561;28;20056;-58
2023/03/12 01:02:59;;;;;;;4.55;2.42;;;;;;;;;;1042630;28;20751;-58
2023/03/12 01:03:30;;;;;;;5.72;2.75;;;;;;;;;;1043195;28;20021;-57
2023/03/12 01:04:01;;;;;;;6.07;2.90;;;;;;;;;;1038862;28;20033;-58
2023/03/12 01:04:32;;;;;;;3.30;2.53;;;;;;;;;;1039101;28;20021;-58
2023/03/12 01:05:03;;;;;;;3.65;2.45;;;;;;;;;;1038628;28;20095;-57
2023/03/12 01:05:36;;;;;;;4.00;3.00;;;;;;;;;;1038970;28;20080;-57
2023/03/12 01:06:07;;;;;;;3.00;2.63;;;;;;;;;;1038731;28;20029;-57
2023/03/12 01:06:38;;;;;;;3.40;2.38;;;;;;;;;;1039169;28;20026;-58
2023/03/12 01:07:09;;;;;;;3.72;2.70;;;;;;;;;;1038557;28;20033;-57
2023/03/12 01:07:40;;;;;;;4.95;3.03;;;;;;;;;;1039224;28;20083;-57
2023/03/12 01:08:11;;;;;;;4.05;2.60;;;;;;;;;;1038790;28;20022;-57
2023/03/12 01:08:42;;;;;;;4.78;2.88;;;;;;;;;;1038991;28;20079;-57
2023/03/12 01:09:13;;;;;;;4.10;2.67;;;;;;;;;;1038747;28;20022;-57
2023/03/12 01:09:44;;;;;;;3.92;2.75;;;;;;;;;;1039097;28;20045;-57
2023/03/12 01:10:16;;;;;;;4.07;2.83;;;;;;;;;;1038920;28;20026;-57
2023/03/12 01:10:47;;;;;;;3.58;2.10;;;;;;;;;;1038844;28;20017;-57
2023/03/12 01:11:19;;;;;;;3.85;2.75;;;;;;;;;;1038964;28;20029;-58
2023/03/12 01:11:50;;;;;;;5.03;3.08;;;;;;;;;;1038921;28;20021;-57
2023/03/12 01:12:21;;;;;;;4.03;2.75;;;;;;;;;;1038937;28;20083;-57
2023/03/12 01:12:52;;;;;;;2.95;2.42;;;;;;;;;;1038899;28;20079;-57
2023/03/12 01:13:23;;;;;;;4.75;2.67;;;;;;;;;;1039041;28;20044;-57
2023/03/12 01:13:54;;;;;;;3.72;2.78;;;;;;;;;;1038688;28;20109;-56
2023/03/12 01:14:25;;;;;;;3.72;2.50;;;;;;;;;;1038832;28;20031;-57
2023/03/12 01:14:56;;;;;;;3.40;2.53;;;;;;;;;;1038786;28;20021;-57
2023/03/12 01:15:27;;;;;;;4.70;2.65;;;;;;;;;;1038980;28;20520;-57
2023/03/12 01:15:58;;;;;;;3.15;2.03;;;;;;;;;;1038835;28;20021;-57
2023/03/12 01:16:29;;;;;;;3.78;2.38;;;;;;;;;;1039042;28;20400;-57
2023/03/12 01:17:00;;;;;;;4.97;2.65;;;;;;;;;;1038728;28;20564;-57
2023/03/12 01:17:31;;;;;;;3.75;2.25;;;;;;;;;;1040190;28;20403;-58
2023/03/12 01:18:02;;;;;;;3.30;2.65;;;;;;;;;;1038683;28;20492;-57
2023/03/12 01:18:33;;;;;;;3.58;2.30;;;;;;;;;;1038592;28;20028;-57
2023/03/12 01:19:04;;;;;;;3.72;2.50;;;;;;;;;;1038396;28;20030;-57
2023/03/12 01:19:35;;;;;;;3.90;2.53;;;;;;;;;;1038745;28;20032;-57
2023/03/12 01:20:07;;;;;;;3.53;2.45;;;;;;;;;;1038312;28;20638;-58
2023/03/12 01:20:39;;;;;;;2.95;2.30;;;;;;;;;;1038735;28;20863;-58
2023/03/12 01:21:10;;;;;;;3.42;2.35;;;;;;;;;;1038355;28;20527;-57
2023/03/12 01:21:41;;;;;;;3.53;2.60;;;;;;;;;;1039130;28;20025;-57
2023/03/12 01:22:12;;;;;;;4.63;2.60;;;;;;;;;;1038656;28;20029;-57
2023/03/12 01:22:43;;;;;;;3.70;2.45;;;;;;;;;;1038927;28;20071;-57
2023/03/12 01:23:15;;;;;;;4.30;2.72;;;;;;;;;;1038761;28;20017;-57
2023/03/12 01:23:46;;;;;;;4.63;2.78;;;;;;;;;;1039042;28;20022;-57
2023/03/12 01:24:17;;;;;;;4.03;2.40;;;;;;;;;;1038282;28;20453;-57
2023/03/12 01:24:48;;;;;;;3.80;2.92;;;;;;;;;;1038580;28;20397;-58
2023/03/12 01:25:19;;;;;;;4.70;2.38;;;;;;;;;;1038483;28;20429;-57
2023/03/12 01:25:51;;;;;;;3.53;2.33;;;;;;;;;;1038136;28;20021;-57
2023/03/12 01:26:22;;;;;;;4.03;2.42;;;;;;;;;;1034620;28;20108;-57
2023/03/12 01:26:53;;;;;;;4.40;2.83;;;;;;;;;;1034744;28;20033;-57
2023/03/12 01:27:24;;;;;;;3.70;2.72;;;;;;;;;;1035269;28;20948;-56
2023/03/12 01:27:55;;;;;;;4.28;2.85;;;;;;;;;;1038978;28;20556;-57
2023/03/12 01:28:26;;;;;;;3.80;2.60;;;;;;;;;;1038634;28;20033;-58
2023/03/12 01:28:57;;;;;;;4.05;2.65;;;;;;;;;;1038966;28;20083;-57
2023/03/12 01:29:28;;;;;;;4.05;2.58;;;;;;;;;;1038586;28;20108;-58
2023/03/12 01:29:59;;;;;;;4.15;2.70;;;;;;;;;;1038839;28;20033;-57
2023/03/12 01:30:30;;;;;;;4.53;2.60;;;;;;;;;;1038750;28;20025;-57
2023/03/12 01:31:08;;;;;;;4.35;2.30;;;;;;;;;;1038900;28;20032;-57
2023/03/12 01:31:39;;;;;;;4.13;2.22;;;;;;;;;;1038727;28;20086;-57
2023/03/12 01:32:10;;;;;;;3.05;2.35;;;;;;;;;;1040238;28;20026;-58
2023/03/12 01:32:40;;;;;;;4.93;2.58;;;;;;;;;;1043035;28;20017;-57
2023/03/12 01:33:11;;;;;;;3.78;2.53;;;;;;;;;;1040653;28;20107;-57
2023/03/12 01:33:42;;;;;;;4.38;2.60;;;;;;;;;;1038899;28;20101;-57
2023/03/12 01:34:13;;;;;;;3.83;2.45;;;;;;;;;;1038822;28;20021;-57
2023/03/12 01:34:45;;;;;;;3.38;2.70;;;;;;;;;;1038529;28;20031;-57
2023/03/12 01:35:16;;;;;;;3.28;2.33;;;;;;;;;;1038957;28;20025;-57
2023/03/12 01:35:46;;;;;;;3.50;2.38;;;;;;;;;;1038657;28;20029;-58
2023/03/12 01:36:19;;;;;;;4.72;2.42;;;;;;;;;;1038939;28;20022;-57
2023/03/12 01:36:50;;;;;;;4.25;2.75;;;;;;;;;;1038662;28;20239;-57
2023/03/12 01:37:21;;;;;;;2.50;2.17;;;;;;;;;;1038637;28;20048;-57
2023/03/12 01:37:52;;;;;;;4.17;2.80;;;;;;;;;;1038269;28;20017;-57
2023/03/12 01:38:23;;;;;;;3.35;2.38;;;;;;;;;;1038524;28;20341;-57
2023/03/12 01:38:55;;;;;;;3.53;2.50;;;;;;;;;;1037971;28;20021;-57
2023/03/12 01:39:27;;;;;;;3.92;2.40;;;;;;;;;;1034844;28;20271;-57
2023/03/12 01:39:58;;;;;;;3.28;2.38;;;;;;;;;;1036573;28;20022;-57
2023/03/12 01:40:29;;;;;;;4.22;2.42;;;;;;;;;;1038899;28;20471;-57
2023/03/12 01:41:00;;;;;;;4.70;2.60;;;;;;;;;;1038515;28;20851;-57
2023/03/12 01:41:32;;;;;;;4.93;2.28;;;;;;;;;;1038902;28;20091;-57
2023/03/12 01:42:03;;;;;;;5.65;2.60;;;;;;;;;;1038669;28;20029;-57
2023/03/12 01:42:34;;;;;;;3.50;2.58;;;;;;;;;;1038917;28;20096;-57
2023/03/12 01:43:34;;;;;;;3.80;2.58;;;;;;;;;;1038488;28;20035;-57
2023/03/12 01:44:06;;;;;;;2.65;2.15;;;;;;;;;;1037850;28;20053;-57
2023/03/12 01:44:49;;;;;;;3.85;2.50;;;;;;;;;;1038521;28;20025;-57
2023/03/12 01:45:39;;;;;;;4.50;2.40;;;;;;;;;;1034772;28;20026;-57
2023/03/12 01:46:22;;;;;;;3.63;2.58;;;;;;;;;;1034476;28;20024;-57
2023/03/12 01:46:53;;;;;;;4.70;2.10;;;;;;;;;;1038750;28;20333;-57
2023/03/12 01:47:25;;;;;;;3.72;2.45;;;;;;;;;;1042756;28;20520;-58
2023/03/12 01:47:56;;;;;;;5.93;2.40;;;;;;;;;;1043026;28;20024;-57
2023/03/12 01:48:28;;;;;;;3.20;2.38;;;;;;;;;;1040884;28;20021;-57
2023/03/12 01:49:06;;;;;;;3.42;1.98;;;;;;;;;;1038885;28;20044;-57
2023/03/12 01:49:37;;;;;;;3.45;2.70;;;;;;;;;;1038488;28;20582;-57
2023/03/12 01:50:09;;;;;;;3.70;2.47;;;;;;;;;;1038272;28;20029;-58
2023/03/12 01:50:39;;;;;;;4.03;2.58;;;;;;;;;;1038348;28;20052;-57
2023/03/12 01:51:12;;;;;;;4.30;2.88;;;;;;;;;;1038015;28;20025;-57
2023/03/12 01:51:43;;;;;;;4.70;2.85;;;;;;;;;;1035500;28;20365;-57
2023/03/12 01:52:16;;;;;;;4.13;2.40;;;;;;;;;;1037883;28;20469;-57
2023/03/12 01:52:47;;;;;;;5.32;2.30;;;;;;;;;;1034671;28;20048;-58
2023/03/12 01:53:18;;;;;;;3.13;2.45;;;;;;;;;;1034941;28;20014;-57
2023/03/12 01:53:50;;;;;;;3.63;2.38;;;;;;;;;;1038017;28;20047;-58
2023/03/12 01:54:23;;;;;;;2.70;2.20;;;;;;;;;;1038656;28;20206;-57
2023/03/12 01:54:57;;;;;;;5.65;2.58;;;;;;;;;;1038430;28;20052;-57
2023/03/12 01:55:28;;;;;;;3.92;2.40;;;;;;;;;;1038442;28;20093;-57
2023/03/12 01:56:00;;;;;;;3.30;2.22;;;;;;;;;;1038869;28;20014;-57
2023/03/12 01:56:32;;;;;;;4.47;2.80;;;;;;;;;;1038746;28;20801;-57
2023/03/12 01:57:04;;;;;;;3.75;2.50;;;;;;;;;;1038734;28;20025;-57
2023/03/12 01:57:48;;;;;;;4.15;2.33;;;;;;;;;;1038288;28;20100;-57
2023/03/12 01:58:19;;;;;;;4.38;2.35;;;;;;;;;;1038525;28;20021;-58
2023/03/12 01:58:54;;;;;;;4.10;2.50;;;;;;;;;;1038134;28;20014;-57
2023/03/12 01:59:29;;;;;;;4.15;2.80;;;;;;;;;;1034664;28;20022;-57
2023/03/12 02:00:03;;;;;;;3.72;2.25;;;;;;;;;;1034507;28;20028;-57
2023/03/12 02:00:34;;;;;;;3.58;2.33;;;;;;;;;;1038292;28;20013;-57
2023/03/12 02:01:06;;;;;;;3.10;2.22;;;;;;;;;;1038390;28;20185;-57
2023/03/12 02:01:37;;;;;;;3.95;2.47;;;;;;;;;;1039834;28;20028;-57
2023/03/12 02:02:08;;;;;;;5.30;2.58;;;;;;;;;;1040062;28;20759;-57
2023/03/12 02:02:40;;;;;;;3.45;2.20;;;;;;;;;;1038878;28;20143;-58
2023/03/12 02:03:12;;;;;;;4.60;2.90;;;;;;;;;;1038571;28;20158;-57
2023/03/12 02:03:45;;;;;;;3.50;2.30;;;;;;;;;;1039573;28;20104;-58
2023/03/12 02:04:17;;;;;;;2.92;2.10;;;;;;;;;;1038594;28;20010;-57
2023/03/12 02:04:49;;;;;;;3.85;2.10;;;;;;;;;;1038780;28;20025;-57
2023/03/12 02:05:20;;;;;;;4.18;2.25;;;;;;;;;;1038686;28;20030;-57
2023/03/12 02:05:53;;;;;;;2.85;2.10;;;;;;;;;;1038791;28;20014;-57
2023/03/12 02:06:28;;;;;;;3.55;2.15;;;;;;;;;;1038585;28;20040;-57
2023/03/12 02:07:10;;;;;;;3.38;2.30;;;;;;;;;;1038716;28;20052;-57
2023/03/12 02:07:41;;;;;;;4.28;2.58;;;;;;;;;;1038862;28;20101;-58
2023/03/12 02:08:12;;;;;;;3.70;2.53;;;;;;;;;;1038473;28;20033;-57
2023/03/12 02:08:45;;;;;;;4.90;2.55;;;;;;;;;;1038713;28;20020;-57
2023/03/12 02:09:19;;;;;;;3.20;2.30;;;;;;;;;;1038615;28;20014;-57
2023/03/12 02:09:50;;;;;;;3.70;2.15;;;;;;;;;;1038823;28;20056;-57
2023/03/12 02:10:21;;;;;;;3.85;2.10;;;;;;;;;;1038381;28;20104;-57
2023/03/12 02:10:52;;;;;;;3.20;2.35;;;;;;;;;;1038834;28;20024;-57
2023/03/12 02:11:23;;;;;;;3.35;2.00;;;;;;;;;;1038664;28;20037;-57
2023/03/12 02:11:54;;;;;;;3.67;2.17;;;;;;;;;;1038884;28;20032;-58
2023/03/12 02:12:25;;;;;;;2.58;1.98;;;;;;;;;;1038419;28;20021;-57
2023/03/12 02:12:56;;;;;;;3.25;2.20;;;;;;;;;;1038831;28;20424;-57
2023/03/12 02:13:27;;;;;;;4.00;2.08;;;;;;;;;;1038561;28;20036;-57
2023/03/12 02:13:58;;;;;;;3.83;2.30;;;;;;;;;;1038829;28;20068;-57
2023/03/12 02:14:29;;;;;;;3.22;2.10;;;;;;;;;;1038631;28;20025;-57
2023/03/12 02:15:00;;;;;;;4.40;2.70;;;;;;;;;;1038518;28;20033;-57
2023/03/12 02:15:32;;;;;;;2.47;2.00;;;;;;;;;;1038620;28;20460;-57
2023/03/12 02:16:03;;;;;;;2.58;1.80;;;;;;;;;;1038948;28;20084;-57
2023/03/12 02:16:34;;;;;;;3.20;2.20;;;;;;;;;;1038629;28;20103;-57
2023/03/12 02:17:06;;;;;;;2.33;2.10;;;;;;;;;;1041153;28;20595;-58
2023/03/12 02:17:39;;;;;;;3.30;2.20;;;;;;;;;;1038415;28;20036;-57
2023/03/12 02:18:12;;;;;;;3.72;2.08;;;;;;;;;;1038363;28;20705;-57
2023/03/12 02:18:43;;;;;;;3.40;1.90;;;;;;;;;;1038376;28;20021;-57
2023/03/12 02:19:23;;;;;;;2.53;1.90;;;;;;;;;;1037338;28;20803;-57
2023/03/12 02:20:12;;;;;;;4.20;2.42;;;;;;;;;;1034457;28;20496;-57
2023/03/12 02:20:50;;;;;;;3.55;2.20;;;;;;;;;;1034361;28;20026;-57
2023/03/12 02:21:26;;;;;;;4.85;2.45;;;;;;;;;;1034744;28;20104;-57
2023/03/12 02:21:58;;;;;;;3.03;2.20;;;;;;;;;;1034543;28;20025;-55
2023/03/12 02:22:29;;;;;;;3.33;2.40;;;;;;;;;;1036605;28;20065;-57
2023/03/12 02:23:03;;;;;;;5.30;2.22;;;;;;;;;;1038610;28;20113;-57
2023/03/12 02:23:37;;;;;;;4.40;2.75;;;;;;;;;;1038979;28;20036;-58
2023/03/12 02:24:13;;;;;;;3.65;2.15;;;;;;;;;;1038300;28;20112;-58
2023/03/12 02:24:48;;;;;;;3.60;2.10;;;;;;;;;;1038533;28;20029;-57
2023/03/12 02:25:30;;;;;;;3.13;1.95;;;;;;;;;;1038245;28;20029;-57
2023/03/12 02:26:02;;;;;;;4.00;2.40;;;;;;;;;;1037131;28;20029;-58
2023/03/12 02:26:35;;;;;;;3.25;1.88;;;;;;;;;;1034543;28;20026;-58
2023/03/12 02:27:07;;;;;;;2.42;2.00;;;;;;;;;;1034422;28;20042;-57
2023/03/12 02:27:38;;;;;;;3.50;2.30;;;;;;;;;;1037308;28;20044;-57
2023/03/12 02:28:11;;;;;;;3.28;2.17;;;;;;;;;;1038508;28;20041;-57
2023/03/12 02:28:44;;;;;;;3.63;2.10;;;;;;;;;;1038959;28;20030;-57
2023/03/12 02:29:15;;;;;;;3.47;1.90;;;;;;;;;;1038379;28;20580;-58
2023/03/12 02:29:46;;;;;;;3.67;2.20;;;;;;;;;;1036614;28;20021;-57
2023/03/12 02:30:18;;;;;;;3.75;2.10;;;;;;;;;;1034446;28;20128;-57
2023/03/12 02:30:50;;;;;;;2.85;2.00;;;;;;;;;;1034766;28;20026;-57
2023/03/12 02:31:25;;;;;;;3.15;2.30;;;;;;;;;;1035412;28;20030;-58
2023/03/12 02:31:57;;;;;;;2.78;2.10;;;;;;;;;;1041703;28;20126;-57
2023/03/12 02:32:32;;;;;;;3.40;2.30;;;;;;;;;;1042740;28;20021;-57
2023/03/12 02:33:06;;;;;;;3.72;2.15;;;;;;;;;;1041747;28;20029;-57
2023/03/12 02:33:37;;;;;;;4.82;2.20;;;;;;;;;;1038743;28;20021;-58
2023/03/12 02:34:08;;;;;;;2.72;1.85;;;;;;;;;;1038730;28;20120;-57
2023/03/12 02:34:39;;;;;;;3.28;1.90;;;;;;;;;;1038636;28;20022;-57
2023/03/12 02:35:10;;;;;;;3.20;2.20;;;;;;;;;;1038599;28;20021;-57
2023/03/12 02:35:42;;;;;;;2.65;1.90;;;;;;;;;;1038697;28;20025;-57
2023/03/12 02:36:13;;;;;;;4.43;2.10;;;;;;;;;;1038763;28;20175;-57
2023/03/12 02:36:44;;;;;;;4.22;2.10;;;;;;;;;;1038630;28;20060;-58
2023/03/12 02:37:15;;;;;;;2.70;1.83;;;;;;;;;;1038798;28;20697;-57
2023/03/12 02:37:53;;;;;;;4.00;2.33;;;;;;;;;;1038523;28;20075;-57
2023/03/12 02:38:27;;;;;;;3.00;1.65;;;;;;;;;;1038738;28;20021;-57
2023/03/12 02:38:58;;;;;;;3.63;1.85;;;;;;;;;;1038542;28;20029;-58
2023/03/12 02:39:29;;;;;;;3.03;1.77;;;;;;;;;;1038882;28;20051;-57
2023/03/12 02:40:15;;;;;;;3.67;2.25;;;;;;;;;;1038365;28;20028;-57
2023/03/12 02:40:47;;;;;;;3.20;2.42;;;;;;;;;;1038602;28;20517;-57
2023/03/12 02:41:22;;;;;;;3.63;1.92;;;;;;;;;;1038872;28;20025;-56
2023/03/12 02:41:58;;;;;;;2.63;1.70;;;;;;;;;;1038164;28;20498;-57
2023/03/12 02:42:29;;;;;;;3.00;1.92;;;;;;;;;;1038949;28;20104;-57
2023/03/12 02:43:01;;;;;;;3.75;2.03;;;;;;;;;;1038529;28;20052;-57
2023/03/12 02:43:32;;;;;;;2.70;1.80;;;;;;;;;;1038771;28;20025;-57
2023/03/12 02:44:20;;;;;;;4.00;2.67;;;;;;;;;;1038271;28;20057;-57
2023/03/12 02:44:51;;;;;;;3.25;1.83;;;;;;;;;;1038031;28;20075;-58
2023/03/12 02:45:22;;;;;;;2.08;1.70;;;;;;;;;;1038860;28;20379;-57
2023/03/12 02:45:53;;;;;;;3.13;2.00;;;;;;;;;;1038783;28;20105;-57
2023/03/12 02:46:24;;;;;;;3.38;1.77;;;;;;;;;;1039014;28;20030;-57
2023/03/12 02:46:57;;;;;;;2.47;1.90;;;;;;;;;;1039508;28;20109;-58
2023/03/12 02:47:28;;;;;;;2.80;1.85;;;;;;;;;;1038641;28;20033;-57
2023/03/12 02:47:59;;;;;;;2.72;1.70;;;;;;;;;;1038681;28;20025;-57
2023/03/12 02:48:30;;;;;;;2.30;1.90;;;;;;;;;;1038593;28;20369;-57
2023/03/12 02:49:01;;;;;;;2.65;1.70;;;;;;;;;;1038650;28;20029;-58
2023/03/12 02:49:33;;;;;;;3.40;1.80;;;;;;;;;;1038678;28;20036;-57
2023/03/12 02:50:04;;;;;;;3.28;1.88;;;;;;;;;;1038583;28;20037;-58
2023/03/12 02:50:35;;;;;;;2.47;1.67;;;;;;;;;;1038694;28;20509;-57
2023/03/12 02:51:06;;;;;;;3.50;1.90;;;;;;;;;;1038490;28;20489;-57
2023/03/12 02:51:37;;;;;;;4.03;1.88;;;;;;;;;;1038570;28;20092;-57
2023/03/12 02:52:09;;;;;;;4.07;2.20;;;;;;;;;;1038083;28;20413;-58
2023/03/12 02:52:40;;;;;;;2.58;1.88;;;;;;;;;;1038336;28;20384;-57
2023/03/12 02:53:11;;;;;;;3.35;1.83;;;;;;;;;;1038301;28;20409;-58
2023/03/12 02:53:42;;;;;;;2.42;1.92;;;;;;;;;;1037724;28;20010;-57
2023/03/12 02:54:15;;;;;;;2.30;1.60;;;;;;;;;;1038024;28;20568;-57
2023/03/12 02:54:46;;;;;;;2.95;1.83;;;;;;;;;;1038471;28;20040;-57
2023/03/12 02:55:17;;;;;;;2.92;2.20;;;;;;;;;;1038732;28;20040;-58
2023/03/12 02:55:48;;;;;;;2.35;1.80;;;;;;;;;;1038545;28;20049;-57
2023/03/12 02:56:19;;;;;;;3.42;2.10;;;;;;;;;;1038781;28;20181;-57
2023/03/12 02:56:50;;;;;;;2.38;2.00;;;;;;;;;;1038309;28;20024;-58
2023/03/12 02:57:21;;;;;;;3.50;2.15;;;;;;;;;;1038845;28;20035;-57
2023/03/12 02:57:52;;;;;;;2.63;1.90;;;;;;;;;;1038508;28;20042;-58
2023/03/12 02:58:23;;;;;;;4.18;1.98;;;;;;;;;;1038823;28;20423;-57
2023/03/12 02:58:54;;;;;;;2.92;1.70;;;;;;;;;;1038453;28;20013;-57
2023/03/12 02:59:25;;;;;;;3.17;2.00;;;;;;;;;;1038876;28;20041;-57
2023/03/12 02:59:56;;;;;;;2.60;1.80;;;;;;;;;;1038589;28;20009;-58
2023/03/12 03:00:30;;;;;;;3.60;1.80;;;;;;;;;;1038749;28;20014;-58
2023/03/12 03:01:01;;;;;;;4.65;2.10;;;;;;;;;;1038614;28;20033;-57
2023/03/12 03:01:32;;;;;;;3.55;2.40;;;;;;;;;;1042318;28;20021;-58
2023/03/12 03:02:05;;;;;;;4.07;1.98;;;;;;;;;;1040618;28;20021;-57
2023/03/12 03:02:36;;;;;;;4.07;1.80;;;;;;;;;;1038853;28;20068;-58
2023/03/12 03:03:07;;;;;;;2.40;1.80;;;;;;;;;;1038430;28;20068;-57
2023/03/12 03:03:38;;;;;;;2.97;1.90;;;;;;;;;;1038772;28;20380;-57
2023/03/12 03:04:10;;;;;;;3.35;2.03;;;;;;;;;;1038353;28;20028;-57
2023/03/12 03:04:41;;;;;;;2.95;1.70;;;;;;;;;;1038825;28;20013;-57
2023/03/12 03:05:12;;;;;;;2.92;1.95;;;;;;;;;;1038446;28;20025;-57
2023/03/12 03:05:43;;;;;;;3.08;1.90;;;;;;;;;;1038757;28;20575;-57
2023/03/12 03:06:14;;;;;;;2.90;2.03;;;;;;;;;;1038466;28;20504;-57
2023/03/12 03:06:47;;;;;;;2.22;1.42;;;;;;;;;;1038772;28;20485;-57
2023/03/12 03:07:18;;;;;;;3.45;1.80;;;;;;;;;;1038358;28;20025;-58
2023/03/12 03:07:49;;;;;;;3.90;1.90;;;;;;;;;;1038786;28;20125;-57
2023/03/12 03:08:20;;;;;;;3.25;2.15;;;;;;;;;;1038458;28;20024;-57
2023/03/12 03:08:51;;;;;;;4.20;2.08;;;;;;;;;;1038521;28;20424;-58
2023/03/12 03:09:22;;;;;;;4.20;2.53;;;;;;;;;;1038549;28;20512;-57
2023/03/12 03:09:53;;;;;;;3.10;2.00;;;;;;;;;;1038673;28;20025;-58
2023/03/12 03:10:24;;;;;;;3.95;2.03;;;;;;;;;;1038293;28;20025;-56
2023/03/12 03:10:55;;;;;;;1.98;1.48;;;;;;;;;;1038446;28;20024;-56
2023/03/12 03:11:26;;;;;;;3.67;2.05;;;;;;;;;;1034457;28;20845;-56
2023/03/12 03:11:57;;;;;;;3.67;1.98;;;;;;;;;;1034531;28;20045;-56